Time;durP1;ratioP1;P1;durP2;ratioP2;P2;SDS_P1;SDS_P2;PMS_P1;PMS_P2;Temp;Humidity;BMP_temperature;BMP_pressure;BME280_temperature;BME280_humidity;BME280_pressure;Samples;Min_cycle;Max_cycle;Signal;HPM_P1;HPM_P2
2022/07/24 00:02:23;;;;;;;5.47;3.77;;;;;;;12.64;86.80;102117.16;5071888;28;20200;-71
2022/07/24 00:04:48;;;;;;;4.60;3.80;;;;;;;12.60;87.17;102118.75;5087606;28;20197;-71
2022/07/24 00:07:14;;;;;;;4.60;3.87;;;;;;;12.58;86.80;102114.38;5091131;28;20277;-70
2022/07/24 00:09:39;;;;;;;5.83;4.60;;;;;;;12.55;87.53;102122.00;5077539;28;20197;-70
2022/07/24 00:12:05;;;;;;;5.27;4.43;;;;;;;12.55;87.54;102119.41;5070797;28;20184;-70
2022/07/24 00:14:31;;;;;;;5.03;4.53;;;;;;;12.55;88.11;102114.28;5069984;28;20188;-69
2022/07/24 00:16:56;;;;;;;5.30;4.63;;;;;;;12.49;88.26;102112.38;5068442;28;20254;-70
2022/07/24 00:19:22;;;;;;;5.00;4.50;;;;;;;12.48;88.79;102109.75;5065355;28;20227;-69
2022/07/24 00:21:47;;;;;;;5.00;4.20;;;;;;;12.54;88.62;102110.81;5068660;28;20262;-70
2022/07/24 00:24:13;;;;;;;5.90;4.83;;;;;;;12.58;88.48;102104.97;5069463;28;20188;-70
2022/07/24 00:26:38;;;;;;;7.20;4.90;;;;;;;12.44;88.83;102102.81;5070011;28;20185;-70
2022/07/24 00:29:04;;;;;;;6.00;4.77;;;;;;;12.38;88.83;102105.16;5068792;28;20181;-70
2022/07/24 00:31:30;;;;;;;6.30;4.40;;;;;;;12.40;88.93;102108.66;5070150;28;21015;-69
2022/07/24 00:33:55;;;;;;;6.70;5.00;;;;;;;12.30;89.00;102104.06;5070129;28;20188;-70
2022/07/24 00:36:21;;;;;;;5.60;4.90;;;;;;;12.27;88.77;102099.69;5069441;28;20185;-70
2022/07/24 00:38:46;;;;;;;8.07;4.93;;;;;;;12.27;88.65;102097.13;5069754;28;20525;-71
2022/07/24 00:41:12;;;;;;;7.57;5.27;;;;;;;12.26;88.12;102094.50;5070017;28;20204;-70
2022/07/24 00:43:59;;;;;;;5.97;5.37;;;;;;;12.19;88.91;102092.53;5070089;28;20234;-70
2022/07/24 00:46:25;;;;;;;6.83;6.00;;;;;;;12.19;88.75;102088.28;5069814;28;20784;-70
2022/07/24 00:48:50;;;;;;;8.33;6.33;;;;;;;12.15;88.97;102091.56;5079562;28;20280;-71
2022/07/24 00:51:16;;;;;;;7.37;5.73;;;;;;;12.06;89.21;102087.81;5077733;28;20295;-69
2022/07/24 00:53:41;;;;;;;11.43;5.83;;;;;;;12.07;88.86;102095.56;5069262;28;20181;-71
2022/07/24 00:56:07;;;;;;;8.77;5.60;;;;;;;11.97;89.15;102093.53;5069773;28;20193;-71
2022/07/24 00:58:32;;;;;;;6.90;6.20;;;;;;;11.98;88.74;102100.41;5069486;28;20188;-70
2022/07/24 01:00:58;;;;;;;7.03;5.87;;;;;;;11.99;89.13;102101.28;5069341;28;20200;-70
2022/07/24 01:03:23;;;;;;;7.20;6.17;;;;;;;11.98;89.78;102096.97;5069602;28;20196;-70
2022/07/24 01:05:49;;;;;;;6.30;5.33;;;;;;;11.96;89.57;102094.34;5069105;28;20662;-71
2022/07/24 01:08:14;;;;;;;5.73;5.20;;;;;;;11.93;89.28;102103.66;5069011;28;20201;-70
2022/07/24 01:10:40;;;;;;;6.77;5.73;;;;;;;11.87;88.99;102103.44;5069694;28;20221;-70
2022/07/24 01:13:06;;;;;;;7.20;6.30;;;;;;;11.87;89.53;102108.56;5069552;28;20188;-70
2022/07/24 01:15:32;;;;;;;8.07;6.07;;;;;;;11.86;89.68;102112.84;5068071;28;20576;-70
2022/07/24 01:17:57;;;;;;;8.17;6.50;;;;;;;11.88;89.67;102111.19;5069404;28;20200;-70
2022/07/24 01:20:22;;;;;;;7.43;6.40;;;;;;;11.84;89.40;102103.34;5068561;28;20229;-71
2022/07/24 01:22:48;;;;;;;7.03;5.63;;;;;;;11.82;88.94;102100.72;5067885;28;20185;-70
2022/07/24 01:25:14;;;;;;;6.47;5.80;;;;;;;11.76;89.24;102102.19;5069291;28;20667;-70
2022/07/24 01:27:39;;;;;;;9.67;6.87;;;;;;;11.80;89.32;102104.91;5068724;28;20259;-70
2022/07/24 01:30:05;;;;;;;8.47;7.50;;;;;;;11.74;89.23;102098.69;5069177;28;20705;-70
2022/07/24 01:32:31;;;;;;;8.47;6.30;;;;;;;11.73;89.39;102096.94;5069296;28;20689;-70
2022/07/24 01:34:56;;;;;;;7.63;6.37;;;;;;;11.68;89.04;102095.91;5068446;28;20196;-71
2022/07/24 01:37:22;;;;;;;9.97;6.70;;;;;;;11.68;89.50;102093.34;5068681;28;20284;-69
2022/07/24 01:39:48;;;;;;;7.50;6.27;;;;;;;11.65;88.99;102091.56;5068876;28;20204;-70
2022/07/24 01:42:13;;;;;;;10.73;6.63;;;;;;;11.64;89.00;102096.63;5069141;28;20687;-71
2022/07/24 01:44:39;;;;;;;7.53;6.83;;;;;;;11.62;89.45;102088.00;5069257;28;20185;-70
2022/07/24 01:47:04;;;;;;;9.43;6.83;;;;;;;11.54;90.53;102086.84;5068841;28;20180;-70
2022/07/24 01:49:30;;;;;;;8.83;6.37;;;;;;;11.57;90.75;102095.50;5068795;28;20212;-69
2022/07/24 01:51:55;;;;;;;9.23;7.17;;;;;;;11.54;90.31;102091.97;5068657;28;20671;-71
2022/07/24 01:54:21;;;;;;;7.70;6.80;;;;;;;11.50;90.63;102088.41;5068471;28;20188;-70
2022/07/24 01:56:46;;;;;;;7.50;6.57;;;;;;;11.43;90.81;102090.72;5068960;28;20185;-70
2022/07/24 01:59:12;;;;;;;8.33;7.37;;;;;;;11.42;91.04;102091.50;5068209;28;20267;-70
2022/07/24 02:01:37;;;;;;;7.40;6.53;;;;;;;11.40;90.83;102090.59;5068726;28;20777;-70
2022/07/24 02:04:03;;;;;;;7.60;6.70;;;;;;;11.37;90.97;102086.22;5067307;28;20555;-70
2022/07/24 02:06:29;;;;;;;9.27;6.80;;;;;;;11.43;91.53;102091.56;5068833;28;20659;-70
2022/07/24 02:08:54;;;;;;;12.17;7.70;;;;;;;11.40;91.28;102094.06;5068646;28;20189;-70
2022/07/24 02:11:19;;;;;;;7.87;6.50;;;;;;;11.41;91.08;102090.66;5068445;28;20211;-71
2022/07/24 02:13:45;;;;;;;8.77;6.97;;;;;;;11.42;91.14;102092.41;5067527;28;20185;-71
2022/07/24 02:16:11;;;;;;;7.53;6.80;;;;;;;11.31;91.63;102095.41;5068572;28;20724;-70
2022/07/24 02:18:36;;;;;;;11.77;6.93;;;;;;;11.30;91.97;102093.66;5068420;28;20181;-71
2022/07/24 02:21:03;;;;;;;7.23;6.53;;;;;;;11.28;91.78;102097.84;5067550;28;20215;-70
2022/07/24 02:23:28;;;;;;;8.30;6.80;;;;;;;11.25;92.03;102097.75;5068679;28;20571;-71
2022/07/24 02:25:54;;;;;;;7.47;6.67;;;;;;;11.24;91.62;102089.16;5068425;28;20188;-71
2022/07/24 02:28:19;;;;;;;10.87;8.33;;;;;;;11.30;92.24;102088.53;5068522;28;20181;-69
2022/07/24 02:30:45;;;;;;;8.53;6.90;;;;;;;11.25;92.29;102087.50;5068095;28;20263;-70
2022/07/24 02:33:11;;;;;;;9.27;7.37;;;;;;;11.20;92.24;102089.00;5067277;28;20625;-70
2022/07/24 02:35:37;;;;;;;9.10;7.63;;;;;;;11.25;92.84;102088.34;5068863;28;20216;-71
2022/07/24 02:38:03;;;;;;;11.97;8.17;;;;;;;11.23;93.37;102087.44;5069254;28;20213;-71
2022/07/24 02:40:30;;;;;;;9.40;8.37;;;;;;;11.28;93.42;102100.41;5072023;28;20213;-72
2022/07/24 02:42:55;;;;;;;9.37;7.77;;;;;;;11.30;93.39;102106.47;5070882;28;20281;-70
2022/07/24 02:45:21;;;;;;;11.60;8.50;;;;;;;11.27;92.99;102098.66;5071784;28;20264;-70
2022/07/24 02:47:52;;;;;;;9.30;7.27;;;;;;;11.23;93.29;102099.34;5071795;28;20554;-70
2022/07/24 02:50:20;;;;;;;9.37;7.57;;;;;;;11.19;92.91;102093.25;5075849;28;20246;-71
2022/07/24 02:52:46;;;;;;;10.40;8.20;;;;;;;11.14;92.68;102099.91;5071534;28;20180;-68
2022/07/24 02:55:12;;;;;;;10.67;7.00;;;;;;;11.15;92.80;102100.78;5057311;28;20181;-71
2022/07/24 02:57:38;;;;;;;9.77;7.50;;;;;;;11.10;92.82;102104.88;5071710;28;20276;-70
2022/07/24 03:00:07;;;;;;;10.57;8.33;;;;;;;11.12;92.78;102106.69;5070345;28;20300;-70
2022/07/24 03:02:33;;;;;;;10.40;8.13;;;;;;;11.03;92.39;102105.44;5071812;28;20216;-70
2022/07/24 03:04:58;;;;;;;9.90;7.47;;;;;;;11.04;92.08;102110.63;5071627;28;20211;-71
2022/07/24 03:07:23;;;;;;;9.27;7.07;;;;;;;10.98;92.25;102110.41;5071710;28;20558;-70
2022/07/24 03:09:49;;;;;;;8.93;7.23;;;;;;;10.98;92.01;102115.53;5070318;28;20224;-70
2022/07/24 03:12:14;;;;;;;12.93;7.10;;;;;;;11.01;91.36;102112.22;5071373;28;20185;-70
2022/07/24 03:14:40;;;;;;;9.50;7.33;;;;;;;11.04;91.99;102110.63;5071459;28;20265;-71
2022/07/24 03:17:05;;;;;;;8.63;7.73;;;;;;;11.11;92.80;102115.16;5071040;28;20201;-70
2022/07/24 03:19:31;;;;;;;10.70;7.57;;;;;;;11.17;93.61;102117.09;5071515;28;20283;-70
2022/07/24 03:21:57;;;;;;;10.90;8.43;;;;;;;11.20;93.41;102105.25;5071329;28;20791;-70
2022/07/24 03:24:22;;;;;;;9.27;7.83;;;;;;;11.16;93.69;102107.66;5071324;28;20185;-71
2022/07/24 03:26:48;;;;;;;8.23;7.33;;;;;;;11.20;93.80;102110.38;5071003;28;20196;-70
2022/07/24 03:29:13;;;;;;;12.03;8.10;;;;;;;11.17;93.97;102107.72;5071601;28;20197;-69
2022/07/24 03:31:39;;;;;;;11.97;7.87;;;;;;;11.21;93.68;102104.47;5071294;28;20264;-71
2022/07/24 03:34:04;;;;;;;10.77;8.33;;;;;;;11.26;94.00;102107.19;5071163;28;20246;-70
2022/07/24 03:36:30;;;;;;;9.77;7.67;;;;;;;11.30;93.78;102101.34;5070841;28;20250;-69
2022/07/24 03:38:55;;;;;;;8.87;7.43;;;;;;;11.33;93.40;102104.03;5071240;28;20246;-71
2022/07/24 03:41:21;;;;;;;9.80;7.60;;;;;;;11.32;93.88;102098.03;5071162;28;20619;-70
2022/07/24 03:43:46;;;;;;;10.17;7.57;;;;;;;11.35;93.48;102092.13;5071334;28;20644;-69
2022/07/24 03:46:11;;;;;;;8.97;7.20;;;;;;;11.38;93.46;102094.81;5071362;28;20177;-70
2022/07/24 03:48:37;;;;;;;12.07;7.00;;;;;;;11.36;93.59;102104.13;5068951;28;20185;-69
2022/07/24 03:51:02;;;;;;;7.97;6.60;;;;;;;11.32;94.13;102105.72;5050845;28;20288;-69
2022/07/24 03:53:28;;;;;;;8.17;7.13;;;;;;;11.36;93.96;102111.81;5063825;28;20276;-70
2022/07/24 03:55:53;;;;;;;12.23;7.70;;;;;;;11.37;93.97;102106.75;5069795;28;20189;-70
2022/07/24 03:58:19;;;;;;;7.13;6.40;;;;;;;11.42;93.60;102105.22;5070237;28;20189;-70
2022/07/24 04:00:44;;;;;;;8.60;6.83;;;;;;;11.42;93.71;102114.59;5070337;28;20221;-70
2022/07/24 04:03:09;;;;;;;8.33;6.47;;;;;;;11.44;93.85;102107.84;5070285;28;20184;-70
2022/07/24 04:05:35;;;;;;;7.77;5.90;;;;;;;11.43;94.24;102114.66;5070497;28;20189;-70
2022/07/24 04:08:00;;;;;;;10.07;7.20;;;;;;;11.46;94.40;102101.94;5070088;28;20201;-69
2022/07/24 04:10:26;;;;;;;8.50;7.53;;;;;;;11.53;94.02;102103.91;5070752;28;20201;-69
2022/07/24 04:12:51;;;;;;;8.07;6.97;;;;;;;11.60;94.04;102097.34;5070284;28;20208;-69
2022/07/24 04:15:17;;;;;;;11.07;7.20;;;;;;;11.61;94.48;102097.41;5069125;28;20196;-70
2022/07/24 04:17:43;;;;;;;10.97;7.00;;;;;;;11.68;94.40;102089.09;5070251;28;20295;-70
2022/07/24 04:20:09;;;;;;;9.33;7.10;;;;;;;11.68;94.73;102091.66;5070442;28;20265;-69
2022/07/24 04:22:35;;;;;;;9.37;6.83;;;;;;;11.71;94.60;102090.91;5070030;28;20260;-70
2022/07/24 04:25:00;;;;;;;8.63;7.37;;;;;;;11.72;94.51;102088.41;5069238;28;20287;-69
2022/07/24 04:27:26;;;;;;;9.87;7.43;;;;;;;11.79;94.63;102094.59;5070397;28;20254;-70
2022/07/24 04:29:51;;;;;;;9.57;6.77;;;;;;;11.85;94.50;102092.25;5070246;28;20201;-70
2022/07/24 04:32:17;;;;;;;10.20;6.90;;;;;;;11.88;94.36;102100.03;5070470;28;20193;-69
2022/07/24 04:34:42;;;;;;;8.67;7.10;;;;;;;11.89;94.54;102097.53;5070329;28;20185;-70
2022/07/24 04:37:08;;;;;;;11.17;7.13;;;;;;;11.93;94.64;102104.50;5069939;28;20881;-69
2022/07/24 04:39:33;;;;;;;8.27;6.50;;;;;;;11.99;94.84;102104.72;5070270;28;20815;-70
2022/07/24 04:41:58;;;;;;;8.33;6.00;;;;;;;12.05;94.41;102101.47;5068863;28;20270;-70
2022/07/24 04:44:24;;;;;;;8.27;6.47;;;;;;;12.10;94.15;102090.56;5070058;28;20192;-69
2022/07/24 04:46:49;;;;;;;9.70;6.97;;;;;;;12.20;93.85;102097.72;5069957;28;20335;-72
2022/07/24 04:49:15;;;;;;;9.03;6.93;;;;;;;12.19;93.99;102095.13;5073368;28;20215;-69
2022/07/24 04:51:40;;;;;;;8.27;6.30;;;;;;;12.31;93.76;102098.09;5081744;28;20181;-69
2022/07/24 04:54:05;;;;;;;7.53;6.30;;;;;;;12.34;93.69;102093.03;5090364;28;20188;-70
2022/07/24 04:56:32;;;;;;;10.17;6.80;;;;;;;12.45;93.43;102086.56;5090306;28;20272;-70
2022/07/24 04:58:59;;;;;;;7.47;6.50;;;;;;;12.52;93.15;102083.34;5090337;28;20639;-70
2022/07/24 05:01:25;;;;;;;8.70;6.83;;;;;;;12.63;92.94;102088.00;5082552;28;20215;-71
2022/07/24 05:03:50;;;;;;;9.40;6.70;;;;;;;12.75;92.42;102080.66;5088155;28;20276;-70
2022/07/24 05:06:16;;;;;;;6.73;6.03;;;;;;;12.84;92.34;102087.78;5085428;28;20272;-70
2022/07/24 05:08:41;;;;;;;8.07;5.90;;;;;;;12.91;91.84;102088.00;5069846;28;20632;-69
2022/07/24 05:11:07;;;;;;;8.57;6.53;;;;;;;13.02;91.86;102082.38;5069744;28;20197;-71
2022/07/24 05:13:32;;;;;;;8.73;6.70;;;;;;;13.11;91.49;102086.06;5077841;28;20650;-70
2022/07/24 05:15:58;;;;;;;11.53;6.53;;;;;;;13.23;91.30;102085.53;5087416;28;20200;-70
2022/07/24 05:18:23;;;;;;;8.57;6.80;;;;;;;13.35;90.61;102079.03;5089720;28;20160;-71
2022/07/24 05:20:48;;;;;;;10.97;6.43;;;;;;;13.46;90.10;102087.94;5089681;28;20205;-70
2022/07/24 05:23:14;;;;;;;6.57;5.97;;;;;;;13.55;89.72;102088.19;5088619;28;20658;-70
2022/07/24 05:25:39;;;;;;;8.37;6.40;;;;;;;13.66;89.74;102096.19;5089920;28;20241;-70
2022/07/24 05:28:05;;;;;;;9.97;6.97;;;;;;;13.77;88.69;102097.34;5089563;28;20198;-70
2022/07/24 05:30:30;;;;;;;7.53;5.73;;;;;;;13.88;88.47;102085.63;5090010;28;20227;-69
2022/07/24 05:32:56;;;;;;;9.83;6.70;;;;;;;13.94;87.80;102086.66;5088742;28;20204;-69
2022/07/24 05:35:21;;;;;;;7.73;5.67;;;;;;;14.06;87.32;102088.66;5089786;28;20180;-70
2022/07/24 05:37:47;;;;;;;7.93;6.40;;;;;;;14.18;87.36;102086.41;5089819;28;20204;-70
2022/07/24 05:40:12;;;;;;;8.30;6.50;;;;;;;14.34;86.81;102091.13;5089722;28;20612;-70
2022/07/24 05:42:37;;;;;;;8.30;6.57;;;;;;;14.53;86.27;102083.88;5088474;28;20228;-71
2022/07/24 05:45:04;;;;;;;7.13;6.50;;;;;;;14.60;86.31;102088.31;5089821;28;20176;-71
2022/07/24 05:47:36;;;;;;;8.37;6.60;;;;;;;14.72;85.92;102082.56;5089551;28;20176;-71
2022/07/24 05:50:05;;;;;;;7.47;6.27;;;;;;;14.73;85.04;102077.44;5077621;28;20205;-72
2022/07/24 05:52:30;;;;;;;9.90;6.57;;;;;;;14.81;85.20;102068.19;5071178;28;20268;-73
2022/07/24 05:54:56;;;;;;;10.57;6.70;;;;;;;15.03;84.55;102069.50;5069576;28;20619;-73
2022/07/24 05:57:21;;;;;;;8.90;6.90;;;;;;;15.07;84.44;102072.19;5068976;28;20915;-73
2022/07/24 05:59:46;;;;;;;8.73;6.47;;;;;;;15.33;84.59;102064.97;5057287;28;20641;-71
2022/07/24 06:02:12;;;;;;;7.83;6.27;;;;;;;15.55;83.56;102064.56;5044237;28;21127;-73
2022/07/24 06:04:41;;;;;;;7.77;6.00;;;;;;;15.68;83.03;102058.78;5049214;28;20706;-75
2022/07/24 06:07:08;;;;;;;6.13;5.60;;;;;;;15.76;82.29;102057.22;5059185;28;20851;-71
2022/07/24 06:09:35;;;;;;;7.87;5.83;;;;;;;16.03;81.33;102058.56;5069604;28;20197;-72
2022/07/24 06:12:00;;;;;;;10.77;6.10;;;;;;;16.16;81.04;102060.50;5069744;28;20181;-72
2022/07/24 06:14:25;;;;;;;7.03;5.80;;;;;;;16.39;81.03;102058.28;5078337;28;20258;-71
2022/07/24 06:16:51;;;;;;;6.10;5.50;;;;;;;16.56;79.68;102052.56;5084431;28;20254;-72
2022/07/24 06:19:16;;;;;;;6.40;5.67;;;;;;;16.82;78.74;102047.75;5091829;28;20216;-72
2022/07/24 06:21:42;;;;;;;5.10;4.60;;;;;;;16.97;78.21;102046.22;5093152;28;20214;-71
2022/07/24 06:24:08;;;;;;;5.17;4.67;;;;;;;17.19;77.98;102049.94;5092965;28;20184;-72
2022/07/24 06:26:33;;;;;;;5.80;4.10;;;;;;;17.10;76.30;102048.13;5092899;28;20176;-72
2022/07/24 06:28:58;;;;;;;6.40;4.40;;;;;;;17.22;75.52;102044.81;5091686;28;20191;-71
2022/07/24 06:31:24;;;;;;;5.40;4.03;;;;;;;17.39;74.94;102036.41;5080446;28;20185;-72
2022/07/24 06:33:49;;;;;;;5.63;3.80;;;;;;;17.56;75.31;102039.16;5071219;28;20197;-72
2022/07/24 06:36:15;;;;;;;4.30;3.87;;;;;;;17.65;74.19;102040.13;5072312;28;20278;-72
2022/07/24 06:38:40;;;;;;;4.00;3.40;;;;;;;17.71;74.59;102041.91;5072335;28;20284;-72
2022/07/24 06:41:06;;;;;;;4.00;3.03;;;;;;;17.87;72.97;102034.28;5070919;28;20985;-72
2022/07/24 06:43:31;;;;;;;4.43;3.40;;;;;;;18.00;73.13;102037.88;5072410;28;20652;-72
2022/07/24 06:45:57;;;;;;;7.20;3.43;;;;;;;18.15;72.83;102038.81;5072380;28;20282;-72
2022/07/24 06:48:22;;;;;;;5.13;2.97;;;;;;;18.17;71.96;102041.44;5072107;28;20221;-73
2022/07/24 06:50:47;;;;;;;5.87;2.87;;;;;;;18.34;71.22;102040.72;5072378;28;20216;-72
2022/07/24 06:53:13;;;;;;;3.83;2.13;;;;;;;18.51;70.75;102041.72;5072247;28;20189;-72
2022/07/24 06:55:38;;;;;;;4.10;2.60;;;;;;;18.69;70.20;102027.97;5072332;28;20212;-72
2022/07/24 06:58:04;;;;;;;3.70;2.50;;;;;;;18.71;69.48;102026.28;5072015;28;20542;-72
2022/07/24 07:00:29;;;;;;;2.63;2.40;;;;;;;18.86;69.13;102023.75;5072149;28;20667;-73
2022/07/24 07:02:55;;;;;;;3.50;2.13;;;;;;;19.04;68.31;102018.63;5071082;28;20181;-73
2022/07/24 07:05:20;;;;;;;4.33;2.37;;;;;;;19.29;68.06;102018.75;5070868;28;20659;-73
2022/07/24 07:07:45;;;;;;;3.47;2.00;;;;;;;19.45;67.65;102010.16;5071617;28;20556;-71
2022/07/24 07:10:11;;;;;;;4.00;2.07;;;;;;;19.64;66.55;102018.81;5072028;28;20250;-71
2022/07/24 07:12:37;;;;;;;2.97;2.17;;;;;;;19.67;65.77;102016.25;5071998;28;20284;-72
2022/07/24 07:15:04;;;;;;;3.80;2.23;;;;;;;19.62;66.91;102010.16;5070640;28;20283;-72
2022/07/24 07:17:30;;;;;;;2.83;2.07;;;;;;;19.83;66.10;102004.97;5086861;28;20581;-70
2022/07/24 07:19:55;;;;;;;4.50;2.10;;;;;;;19.88;65.65;101998.03;5070496;28;20209;-73
2022/07/24 07:22:21;;;;;;;1.80;1.70;;;;;;;20.32;64.86;101991.94;5069776;28;20197;-72
2022/07/24 07:24:46;;;;;;;3.17;2.10;;;;;;;20.30;64.76;101998.91;5070237;28;20185;-71
2022/07/24 07:27:12;;;;;;;2.93;2.00;;;;;;;20.26;64.20;102001.53;5071223;28;20189;-71
2022/07/24 07:29:37;;;;;;;2.57;1.90;;;;;;;20.40;63.68;101992.81;5070345;28;20224;-71
2022/07/24 07:32:03;;;;;;;3.63;2.13;;;;;;;20.47;63.40;101998.88;5071614;28;20233;-71
2022/07/24 07:34:28;;;;;;;3.37;1.70;;;;;;;20.62;63.71;102007.50;5069562;28;20181;-70
2022/07/24 07:36:54;;;;;;;1.70;1.60;;;;;;;20.60;62.75;102000.56;5069976;28;20189;-71
2022/07/24 07:39:19;;;;;;;3.87;1.80;;;;;;;20.80;62.67;101998.75;5079147;28;20213;-71
2022/07/24 07:41:45;;;;;;;4.20;2.03;;;;;;;20.76;62.58;102007.44;5071351;28;20212;-71
2022/07/24 07:44:10;;;;;;;5.33;1.80;;;;;;;21.17;62.34;102002.97;5071341;28;20204;-71
2022/07/24 07:46:35;;;;;;;2.10;1.60;;;;;;;21.28;61.51;101995.97;5070909;28;20196;-71
2022/07/24 07:49:01;;;;;;;3.43;1.70;;;;;;;21.54;60.66;101997.53;5066313;28;20677;-71
2022/07/24 07:51:26;;;;;;;2.93;1.80;;;;;;;21.61;60.06;101991.38;5073804;28;20208;-72
2022/07/24 07:53:52;;;;;;;1.90;1.80;;;;;;;21.42;60.63;101994.16;5068480;28;20196;-72
2022/07/24 07:56:17;;;;;;;4.83;1.70;;;;;;;21.71;59.94;101990.50;5068325;28;20268;-72
2022/07/24 07:58:43;;;;;;;4.50;1.63;;;;;;;21.68;60.57;101989.59;5069503;28;20219;-71
2022/07/24 08:01:08;;;;;;;6.10;1.57;;;;;;;21.75;59.62;101988.72;5070613;28;20211;-71
2022/07/24 08:03:33;;;;;;;6.20;2.10;;;;;;;22.03;59.12;101983.22;5070088;28;20234;-72
2022/07/24 08:06:01;;;;;;;2.13;1.53;;;;;;;22.20;59.20;101994.38;5070621;28;20640;-72
2022/07/24 08:08:26;;;;;;;2.27;1.70;;;;;;;22.38;58.74;101989.88;5070366;28;20224;-72
2022/07/24 08:10:52;;;;;;;2.60;1.53;;;;;;;22.37;57.51;101993.38;5069165;28;20684;-72
2022/07/24 08:13:19;;;;;;;1.80;1.70;;;;;;;22.34;58.15;101997.72;5070522;28;20246;-72
2022/07/24 08:15:45;;;;;;;3.17;1.60;;;;;;;22.65;58.36;101992.22;5070340;28;20611;-71
2022/07/24 08:18:10;;;;;;;2.50;1.60;;;;;;;22.99;57.31;101989.16;5070478;28;20311;-72
2022/07/24 08:20:36;;;;;;;4.50;2.10;;;;;;;22.78;56.28;101981.59;5069898;28;20274;-70
2022/07/24 08:23:01;;;;;;;1.67;1.57;;;;;;;23.19;55.28;101984.56;5070362;28;20193;-71
2022/07/24 08:25:27;;;;;;;3.40;1.80;;;;;;;22.79;55.66;101991.16;5069030;28;20335;-72
2022/07/24 08:27:53;;;;;;;2.77;2.17;;;;;;;23.20;56.36;101978.44;5070127;28;20184;-72
2022/07/24 08:30:18;;;;;;;3.53;1.73;;;;;;;23.35;55.78;101979.97;5068976;28;20201;-71
2022/07/24 08:32:44;;;;;;;1.80;1.70;;;;;;;23.59;54.20;101980.47;5068813;28;20727;-72
2022/07/24 08:35:11;;;;;;;4.60;1.87;;;;;;;23.25;54.58;101981.00;5069533;28;20821;-72
2022/07/24 08:37:38;;;;;;;2.33;1.57;;;;;;;23.78;53.80;101968.81;5069614;28;20196;-72
2022/07/24 08:40:05;;;;;;;2.00;1.40;;;;;;;23.85;52.20;101969.59;5068790;28;20213;-72
2022/07/24 08:42:31;;;;;;;2.63;1.60;;;;;;;24.09;52.55;101970.06;5070383;28;20188;-71
2022/07/24 08:44:56;;;;;;;3.80;1.70;;;;;;;24.34;52.85;101971.31;5078598;28;20663;-72
2022/07/24 08:47:24;;;;;;;3.47;1.60;;;;;;;23.86;52.74;101969.56;5069700;28;20188;-72
2022/07/24 08:49:54;;;;;;;3.17;1.60;;;;;;;24.05;51.81;101955.31;5069789;28;20257;-72
2022/07/24 08:52:22;;;;;;;2.25;1.70;;;;;;;24.00;52.17;101967.59;5069947;28;20181;-71
2022/07/24 08:54:47;;;;;;;2.83;1.70;;;;;;;24.68;50.97;101958.47;5069142;28;20188;-72
2022/07/24 08:57:13;;;;;;;1.88;1.70;;;;;;;24.54;50.88;101958.69;5069154;28;20699;-72
2022/07/24 08:59:38;;;;;;;2.27;1.70;;;;;;;24.79;50.03;101965.22;5069618;28;20232;-72
2022/07/24 09:02:04;;;;;;;4.63;1.58;;;;;;;25.48;49.83;101957.53;5069660;28;20339;-72
2022/07/24 09:04:36;;;;;;;3.42;1.70;;;;;;;24.98;49.01;101963.91;5069237;28;20276;-71
2022/07/24 09:07:08;;;;;;;2.28;1.70;;;;;;;25.60;49.05;101949.38;5069232;28;20181;-72
2022/07/24 09:09:34;;;;;;;2.30;1.88;;;;;;;25.54;47.83;101950.38;5069331;28;20261;-73
2022/07/24 09:12:12;;;;;;;4.03;2.03;;;;;;;25.60;47.40;101942.34;5068817;28;20181;-73
2022/07/24 09:14:39;;;;;;;2.92;2.00;;;;;;;25.89;47.52;101939.00;5049832;28;20739;-73
2022/07/24 09:17:08;;;;;;;2.70;2.03;;;;;;;25.59;47.96;101943.25;5051863;28;20185;-72
2022/07/24 09:19:51;;;;;;;1.95;1.77;;;;;;;25.36;48.17;101942.97;5069230;28;20347;-73
2022/07/24 09:22:39;;;;;;;4.28;2.00;;;;;;;25.70;47.21;101945.63;5067935;28;20223;-72
2022/07/24 09:25:08;;;;;;;2.78;1.80;;;;;;;26.05;47.29;101937.72;5068970;28;20197;-72
2022/07/24 09:27:36;;;;;;;3.85;2.30;;;;;;;26.41;44.81;101940.22;5068881;28;20221;-72
2022/07/24 09:30:03;;;;;;;2.35;1.90;;;;;;;26.54;45.53;101935.47;5069157;28;20209;-73
2022/07/24 09:32:29;;;;;;;2.58;1.90;;;;;;;26.68;45.11;101931.59;5069046;28;20242;-73
2022/07/24 09:34:55;;;;;;;2.50;2.10;;;;;;;26.78;46.07;101935.66;5068177;28;20189;-71
2022/07/24 09:37:21;;;;;;;2.50;2.30;;;;;;;26.67;43.80;101929.84;5068466;28;21014;-71
2022/07/24 09:39:47;;;;;;;2.53;1.98;;;;;;;26.55;45.60;101932.81;5067452;28;20223;-73
2022/07/24 09:42:13;;;;;;;2.97;2.15;;;;;;;25.93;45.55;101932.81;5069111;28;20204;-71
2022/07/24 09:44:39;;;;;;;3.08;2.47;;;;;;;26.98;44.22;101932.44;5069136;28;20719;-72
2022/07/24 09:47:07;;;;;;;3.38;2.60;;;;;;;26.73;44.58;101936.69;5068206;28;20200;-72
2022/07/24 09:49:34;;;;;;;2.35;2.00;;;;;;;26.74;44.19;101933.16;5069152;28;20225;-71
2022/07/24 09:52:15;;;;;;;3.42;2.40;;;;;;;27.22;43.79;101929.91;5067577;28;20196;-72
2022/07/24 09:54:41;;;;;;;4.57;2.25;;;;;;;26.75;43.79;101932.25;5069281;28;20689;-73
2022/07/24 09:57:27;;;;;;;2.65;2.38;;;;;;;27.03;42.65;101922.63;5068459;28;20844;-73
2022/07/24 09:59:58;;;;;;;2.72;2.42;;;;;;;27.16;43.47;101924.81;5062741;28;20200;-73
2022/07/24 10:02:30;;;;;;;3.33;2.40;;;;;;;27.37;43.22;101921.53;5068464;28;20279;-73
2022/07/24 10:04:57;;;;;;;2.47;2.28;;;;;;;27.16;42.91;101918.69;5068838;28;20749;-71
2022/07/24 10:07:24;;;;;;;4.82;2.42;;;;;;;27.33;43.24;101917.28;5068442;28;20720;-73
2022/07/24 10:09:52;;;;;;;2.95;2.30;;;;;;;27.32;42.51;101917.34;5068720;28;20209;-72
2022/07/24 10:12:20;;;;;;;3.70;2.92;;;;;;;27.38;41.47;101912.72;5068940;28;20666;-72
2022/07/24 10:14:48;;;;;;;4.15;2.70;;;;;;;27.90;41.50;101902.19;5069075;28;20188;-72
2022/07/24 10:17:15;;;;;;;2.63;2.42;;;;;;;28.16;41.46;101901.25;5067262;28;20193;-72
2022/07/24 10:19:46;;;;;;;3.28;2.88;;;;;;;27.56;42.00;101909.50;5068061;28;20831;-71
2022/07/24 10:22:21;;;;;;;3.88;2.72;;;;;;;27.88;41.97;101896.13;5068533;28;20251;-73
2022/07/24 10:24:53;;;;;;;5.63;2.95;;;;;;;27.75;41.91;101899.19;5068660;28;20667;-72
2022/07/24 10:27:31;;;;;;;2.42;2.20;;;;;;;28.18;41.50;101897.66;5066816;28;20188;-72
2022/07/24 10:30:00;;;;;;;4.43;2.80;;;;;;;28.19;40.77;101886.19;5068433;28;20213;-73
2022/07/24 10:32:27;;;;;;;4.28;2.97;;;;;;;27.61;41.87;101896.16;5076517;28;20239;-72
2022/07/24 10:35:06;;;;;;;3.40;2.97;;;;;;;27.92;40.97;101886.31;5064148;28;20200;-73
2022/07/24 10:37:32;;;;;;;3.83;2.80;;;;;;;28.24;40.48;101888.66;5050844;28;20291;-72
2022/07/24 10:40:19;;;;;;;3.20;2.88;;;;;;;28.20;40.82;101879.16;5068442;28;20617;-73
2022/07/24 10:43:09;;;;;;;3.30;3.00;;;;;;;27.95;41.16;101876.53;5068520;28;20185;-72
2022/07/24 10:45:53;;;;;;;3.35;2.80;;;;;;;27.49;41.56;101880.78;5068395;28;20195;-72
2022/07/24 10:48:28;;;;;;;4.40;3.08;;;;;;;28.45;39.23;101872.06;5067603;28;20196;-73
2022/07/24 10:51:08;;;;;;;3.50;2.88;;;;;;;29.06;40.83;101866.19;5067997;28;20201;-72
2022/07/24 10:53:37;;;;;;;5.78;3.00;;;;;;;29.71;37.81;101870.44;5070727;28;20181;-73
2022/07/24 10:56:35;;;;;;;4.05;3.22;;;;;;;29.82;38.49;101870.84;5067950;28;20276;-73
2022/07/24 10:59:09;;;;;;;3.97;3.50;;;;;;;29.70;38.08;101863.44;5054356;28;20617;-72
2022/07/24 11:01:39;;;;;;;4.70;3.50;;;;;;;29.40;38.42;101872.66;5071866;28;20205;-73
2022/07/24 11:04:19;;;;;;;3.47;3.17;;;;;;;29.17;38.28;101863.94;5071763;28;20612;-73
2022/07/24 11:06:47;;;;;;;4.75;3.60;;;;;;;28.85;38.74;101870.50;5070553;28;20187;-73
2022/07/24 11:09:15;;;;;;;3.78;3.47;;;;;;;28.49;39.64;101866.63;5071606;28;20239;-73
2022/07/24 11:12:00;;;;;;;4.90;3.60;;;;;;;28.79;39.67;101856.69;5071979;28;20185;-73
2022/07/24 11:14:47;;;;;;;4.63;3.65;;;;;;;29.53;39.13;101862.41;5060637;28;20207;-72
2022/07/24 11:17:40;;;;;;;3.78;3.47;;;;;;;29.33;38.16;101855.31;5071132;28;20189;-72
2022/07/24 11:20:10;;;;;;;3.90;3.50;;;;;;;29.57;38.78;101853.47;5071051;28;20213;-73
2022/07/24 11:22:42;;;;;;;4.28;3.85;;;;;;;30.16;38.79;101848.22;5070458;28;20672;-73
2022/07/24 11:25:11;;;;;;;4.20;3.67;;;;;;;30.85;36.20;101839.66;5071511;28;20200;-73